Time;durP1;ratioP1;P1;durP2;ratioP2;P2;SDS_P1;SDS_P2;PMS_P1;PMS_P2;Temp;Humidity;BMP_temperature;BMP_pressure;BME280_temperature;BME280_humidity;BME280_pressure;Samples;Min_cycle;Max_cycle;Signal;HPM_P1;HPM_P2
2021/10/09 08:10:32;;;;;;;65.60;38.75;;;;;;;15.38;100.00;101848.44;5071717;28;20376;-93
2021/10/09 08:12:57;;;;;;;73.82;38.95;;;;;;;15.93;96.65;101848.38;5070267;28;20036;-96
2021/10/09 08:15:23;;;;;;;69.63;37.00;;;;;;;16.75;88.50;101852.41;5069852;28;20429;-96
2021/10/09 08:17:48;;;;;;;61.35;33.58;;;;;;;17.35;85.98;101849.91;5054150;28;20053;-95
2021/10/09 08:20:14;;;;;;;59.35;31.58;;;;;;;17.76;83.47;101853.94;5050039;28;20032;-96
2021/10/09 08:22:54;;;;;;;60.05;35.42;;;;;;;17.66;80.71;101853.78;5049599;28;20518;-96
2021/10/09 08:36:16;;;;;;;48.20;28.60;;;;;;;18.79;74.19;101854.84;5048283;28;20035;-94
2021/10/09 08:38:50;;;;;;;31.02;22.42;;;;;;;19.24;71.83;101850.44;5048244;28;20029;-95
2021/10/09 08:41:17;;;;;;;29.50;21.75;;;;;;;19.65;71.16;101847.00;5047732;28;20033;-94
2021/10/09 08:43:44;;;;;;;31.63;20.80;;;;;;;20.04;66.16;101857.09;5048281;28;20055;-95
2021/10/09 08:46:10;;;;;;;28.15;20.95;;;;;;;20.49;65.33;101851.44;5051635;28;20025;-95
2021/10/09 08:48:57;;;;;;;27.75;19.48;;;;;;;20.64;64.51;101844.81;5046271;28;20025;-95
2021/10/09 08:51:24;;;;;;;28.30;20.75;;;;;;;21.98;62.25;101846.91;5032377;28;20467;-96
2021/10/09 08:53:50;;;;;;;25.25;19.70;;;;;;;22.81;57.68;101853.38;5049473;28;20116;-96
2021/10/09 08:56:34;;;;;;;24.88;16.25;;;;;;;24.29;53.34;101847.50;5054141;28;20056;-96
2021/10/09 08:59:08;;;;;;;21.33;15.82;;;;;;;24.87;52.06;101844.09;5061553;28;20028;-96
2021/10/09 09:02:09;;;;;;;18.25;13.05;;;;;;;24.83;50.65;101850.81;5062310;28;20052;-96
2021/10/09 09:26:45;;;;;;;21.48;16.38;;;;;;;22.33;54.18;101855.28;5034512;28;20064;-95
2021/10/09 09:40:10;;;;;;;24.95;16.90;;;;;;;22.49;54.14;101852.84;5042690;28;19917;-96
2021/10/09 09:42:47;;;;;;;22.45;17.10;;;;;;;22.78;52.93;101843.81;5040281;28;20098;-96
2021/10/09 09:45:22;;;;;;;22.20;16.38;;;;;;;22.80;53.32;101839.16;5056390;28;20036;-96
2021/10/09 09:47:48;;;;;;;19.13;14.15;;;;;;;23.00;53.45;101836.38;5047850;28;20065;-96
2021/10/09 09:50:16;;;;;;;22.73;17.02;;;;;;;23.52;51.91;101847.31;5041245;28;20380;-96
2021/10/09 09:52:43;;;;;;;21.50;15.60;;;;;;;23.84;51.14;101840.53;5035228;28;20038;-96
2021/10/09 09:55:11;;;;;;;25.38;14.65;;;;;;;24.15;50.86;101833.72;5053198;28;20159;-95
2021/10/09 09:57:37;;;;;;;21.48;15.63;;;;;;;24.56;48.88;101829.56;5040222;28;20568;-95
2021/10/09 10:00:14;;;;;;;19.80;15.80;;;;;;;24.46;48.47;101835.03;5028354;28;20037;-95
2021/10/09 10:02:50;;;;;;;17.85;15.40;;;;;;;24.77;47.94;101837.22;5036712;28;20021;-94
2021/10/09 10:05:18;;;;;;;20.33;14.45;;;;;;;24.91;47.42;101837.41;5049204;28;20036;-96
2021/10/09 10:07:43;;;;;;;19.30;15.18;;;;;;;24.63;46.76;101831.44;5045635;28;20049;-96
2021/10/09 10:10:24;;;;;;;19.48;15.80;;;;;;;24.26;48.37;101829.88;5039269;28;20135;-96
2021/10/09 10:12:57;;;;;;;20.65;15.73;;;;;;;23.76;48.23;101827.88;5040830;28;20028;-94
2021/10/09 10:15:28;;;;;;;22.05;16.20;;;;;;;23.65;50.07;101834.31;5040275;28;20033;-96
2021/10/09 10:20:49;;;;;;;20.40;15.13;;;;;;;23.69;51.16;101833.00;5014839;28;20041;-96
2021/10/09 10:23:44;;;;;;;17.70;12.70;;;;;;;24.91;49.01;101832.03;5043195;22;20014;-95
2021/10/09 10:26:23;;;;;;;17.38;13.45;;;;;;;25.67;46.71;101826.56;5021256;28;20071;-96
2021/10/09 10:28:51;;;;;;;17.58;13.00;;;;;;;25.82;45.89;101824.06;5033970;28;20024;-95
2021/10/09 10:31:17;;;;;;;14.95;12.15;;;;;;;26.51;43.21;101827.91;5031486;28;20138;-96
2021/10/09 10:33:44;;;;;;;16.58;12.20;;;;;;;27.02;42.08;101822.13;5032356;28;20288;-96
2021/10/09 10:36:12;;;;;;;16.75;11.95;;;;;;;27.65;40.11;101820.16;5059546;22;20010;-96
2021/10/09 10:41:11;;;;;;;16.60;13.55;;;;;;;27.49;39.62;101833.78;5024199;28;20048;-96
2021/10/09 10:48:56;;;;;;;13.32;10.07;;;;;;;29.02;36.46;101808.06;5039326;28;20096;-96
2021/10/09 10:59:33;;;;;;;16.30;12.07;;;;;;;29.96;34.97;101829.53;5033980;28;20048;-96
2021/10/09 11:02:09;;;;;;;15.20;11.00;;;;;;;29.89;35.85;101820.50;5022462;28;20492;-96
2021/10/09 11:04:39;;;;;;;15.52;12.55;;;;;;;29.31;35.52;101812.53;5024869;28;20022;-96
2021/10/09 11:07:05;;;;;;;24.33;11.77;;;;;;;30.11;34.59;101818.56;5027408;28;20025;-95
2021/10/09 11:09:31;;;;;;;15.88;12.07;;;;;;;29.82;35.15;101804.22;5033236;28;20029;-96
2021/10/09 11:11:58;;;;;;;17.15;12.48;;;;;;;30.08;35.27;101810.03;5033496;28;20419;-96
2021/10/09 11:14:27;;;;;;;16.38;12.48;;;;;;;30.05;34.86;101806.66;5034635;28;20488;-96
2021/10/09 11:17:00;;;;;;;16.35;11.65;;;;;;;30.04;35.35;101815.81;5021183;28;20022;-96
2021/10/09 11:19:49;;;;;;;16.38;12.73;;;;;;;30.81;34.91;101808.47;5033331;28;20094;-96
2021/10/09 11:22:19;;;;;;;15.75;12.40;;;;;;;30.98;34.62;101810.81;5108148;22;20032;-93
2021/10/09 11:24:47;;;;;;;20.30;13.20;;;;;;;29.57;35.74;101811.94;5147113;22;20498;-93
2021/10/09 11:27:15;;;;;;;15.23;11.90;;;;;;;30.03;34.55;101811.44;5084990;28;20029;-96
2021/10/09 11:29:42;;;;;;;15.48;12.48;;;;;;;30.07;35.43;101808.34;5096216;28;20017;-96
2021/10/09 11:32:16;;;;;;;15.82;12.40;;;;;;;30.08;35.56;101804.59;5624049;22;20105;-96
2021/10/09 12:01:00;;;;;;;12.77;11.32;;;;;;;31.14;33.98;101799.59;5237775;22;20050;-96
2021/10/09 12:03:31;;;;;;;17.50;12.55;;;;;;;30.90;34.56;101802.88;5019447;28;20042;-96
2021/10/09 12:05:57;;;;;;;;;;;;;;;31.13;34.25;101797.91;5021076;28;20052;-96
2021/10/09 12:08:26;;;;;;;16.17;12.60;;;;;;;31.26;33.63;101797.09;5018371;28;19913;-95
2021/10/09 12:11:15;;;;;;;17.65;13.55;;;;;;;31.87;31.32;101798.72;5017294;28;20018;-96
2021/10/09 12:13:57;;;;;;;19.42;14.52;;;;;;;31.46;32.88;101797.13;5015708;28;20033;-95
2021/10/09 12:16:28;;;;;;;19.38;14.10;;;;;;;31.39;31.54;101797.06;5019031;28;20065;-95
2021/10/09 12:18:58;;;;;;;20.65;14.93;;;;;;;31.01;32.75;101799.56;4999919;28;20026;-95
2021/10/09 12:21:30;;;;;;;12.17;10.00;;;;;;;31.18;32.39;101798.13;4996323;28;20038;-96
2021/10/09 12:23:57;;;;;;;18.92;12.02;;;;;;;31.08;33.20;101799.56;4984652;28;20122;-95
2021/10/09 12:26:24;;;;;;;16.65;11.63;;;;;;;30.58;33.38;101789.00;5016983;28;20061;-96
2021/10/09 12:29:08;;;;;;;18.38;13.43;;;;;;;30.40;35.17;101808.53;4998150;28;20038;-96
2021/10/09 12:31:36;;;;;;;17.42;15.18;;;;;;;30.47;33.79;101805.84;4995237;28;20388;-96
2021/10/09 12:34:02;;;;;;;19.95;14.07;;;;;;;29.76;35.55;101798.75;4982689;28;20018;-95
2021/10/09 12:36:38;;;;;;;18.80;13.45;;;;;;;29.39;36.15;101800.75;4995145;28;20126;-96
2021/10/09 12:39:23;;;;;;;16.63;12.43;;;;;;;29.24;37.16;101792.72;4978246;28;20380;-96
2021/10/09 12:41:53;;;;;;;14.07;10.48;;;;;;;29.66;36.29;101797.22;4995414;28;20069;-96
2021/10/09 12:44:20;;;;;;;15.70;12.40;;;;;;;29.10;36.49;101794.41;5031495;28;20080;-96
2021/10/09 12:46:46;;;;;;;16.33;9.73;;;;;;;29.60;36.10;101797.16;5000084;28;20030;-96
2021/10/09 12:49:11;;;;;;;14.70;11.77;;;;;;;29.65;35.93;101794.72;4995035;28;20032;-95
2021/10/09 12:51:37;;;;;;;16.27;12.30;;;;;;;29.45;36.95;101794.56;5001856;28;20029;-96
2021/10/09 12:54:05;;;;;;;14.13;11.50;;;;;;;29.58;36.20;101789.25;4996174;28;20121;-95
2021/10/09 12:56:31;;;;;;;15.80;11.75;;;;;;;29.42;36.21;101778.69;4996915;28;20026;-96
2021/10/09 12:58:56;;;;;;;15.95;11.07;;;;;;;29.27;35.80;101779.63;4998423;28;20373;-95
2021/10/09 13:01:22;;;;;;;13.98;11.02;;;;;;;29.14;36.75;101776.81;5000205;28;20059;-96
2021/10/09 13:03:55;;;;;;;17.20;12.57;;;;;;;28.67;37.82;101780.88;5006153;28;20026;-95
2021/10/09 13:06:34;;;;;;;16.13;11.65;;;;;;;28.60;36.39;101774.56;5001015;28;20038;-96
2021/10/09 13:09:01;;;;;;;12.18;9.93;;;;;;;28.75;37.88;101771.81;5109406;22;20027;-96
2021/10/09 13:16:36;;;;;;;11.38;7.93;;;;;;;28.24;37.50;101767.25;5056464;28;20029;-96
2021/10/09 13:37:23;;;;;;;15.73;11.52;;;;;;;26.91;39.37;101763.22;2892157;22;20050;-96
2021/10/09 13:39:49;;;;;;;17.33;13.05;;;;;;;26.81;38.60;101751.84;5031244;28;20043;-96
2021/10/09 13:42:16;;;;;;;16.50;12.05;;;;;;;26.58;40.79;101760.78;5035116;28;20033;-96
2021/10/09 13:44:42;;;;;;;19.30;13.63;;;;;;;26.19;39.98;101758.91;5033307;28;20029;-96
2021/10/09 13:47:07;;;;;;;20.17;13.55;;;;;;;26.31;39.84;101757.50;5030939;28;20136;-96
2021/10/09 13:49:33;;;;;;;18.42;13.90;;;;;;;26.10;42.00;101758.06;5030345;28;20021;-96
2021/10/09 13:51:58;;;;;;;21.27;15.38;;;;;;;26.14;42.11;101744.28;5046550;28;20065;-96
2021/10/09 13:54:24;;;;;;;23.10;16.10;;;;;;;26.08;41.66;101752.03;5040653;28;20025;-96
2021/10/09 13:56:49;;;;;;;23.20;15.38;;;;;;;25.73;41.99;101748.75;5045007;28;20438;-96
2021/10/09 13:59:15;;;;;;;20.65;14.70;;;;;;;25.58;42.22;101755.81;5043835;28;20037;-96
2021/10/09 14:01:42;;;;;;;27.55;17.52;;;;;;;25.37;41.88;101747.44;5023582;28;20021;-96
2021/10/09 14:04:08;;;;;;;22.20;16.88;;;;;;;25.35;42.25;101750.28;5030716;28;20498;-96
2021/10/09 14:06:33;;;;;;;22.05;16.67;;;;;;;25.31;43.88;101740.91;5040411;28;20026;-96
2021/10/09 14:08:58;;;;;;;22.10;16.15;;;;;;;25.31;43.90;101749.78;5045842;28;20084;-96
2021/10/09 14:11:24;;;;;;;18.75;13.38;;;;;;;25.28;44.11;101739.41;5047599;28;20033;-96
2021/10/09 14:13:49;;;;;;;17.30;12.88;;;;;;;24.81;44.66;101748.06;5044959;28;20022;-96
2021/10/09 14:16:15;;;;;;;17.73;12.77;;;;;;;24.85;44.03;101746.72;5043055;28;20546;-96
2021/10/09 14:18:40;;;;;;;17.75;13.02;;;;;;;24.60;43.38;101743.13;5043815;28;20025;-96
2021/10/09 14:21:08;;;;;;;19.73;12.57;;;;;;;24.53;43.91;101723.34;5652287;22;20146;-96
2021/10/09 14:31:22;;;;;;;19.55;13.70;;;;;;;24.42;44.49;101727.13;5282670;22;20052;-96
2021/10/09 14:33:47;;;;;;;21.90;13.00;;;;;;;24.50;45.19;101723.63;5031845;28;20030;-96
2021/10/09 14:36:13;;;;;;;13.05;10.07;;;;;;;24.63;45.64;101728.56;5039420;28;20421;-96
2021/10/09 14:38:38;;;;;;;26.58;14.45;;;;;;;24.45;44.96;101716.06;5046694;28;20037;-96
2021/10/09 14:41:04;;;;;;;21.27;12.93;;;;;;;24.67;44.40;101727.22;5048267;28;20018;-96
2021/10/09 14:43:32;;;;;;;21.90;14.98;;;;;;;24.67;43.82;101729.91;5036714;28;20049;-96
2021/10/09 14:46:07;;;;;;;23.10;13.77;;;;;;;24.49;43.76;101728.16;5017466;28;20026;-96
2021/10/09 14:48:36;;;;;;;19.02;13.13;;;;;;;24.54;44.64;101731.19;5015413;28;20153;-96
2021/10/09 14:51:15;;;;;;;23.50;14.82;;;;;;;24.30;44.62;101726.56;5034501;28;20018;-96
2021/10/09 15:01:49;;;;;;;22.02;14.57;;;;;;;24.15;45.52;101723.69;5033695;28;20080;-96
2021/10/09 15:20:26;;;;;;;20.65;12.98;;;;;;;23.45;46.64;101728.28;5029914;28;20025;-96
2021/10/09 15:22:51;;;;;;;19.38;13.15;;;;;;;23.40;46.21;101722.53;5016174;28;20022;-96
2021/10/09 15:25:16;;;;;;;23.90;14.93;;;;;;;23.42;46.98;101721.41;5006739;28;20071;-96
2021/10/09 15:27:42;;;;;;;19.25;11.57;;;;;;;23.40;45.92;101726.09;5013869;28;20025;-96
2021/10/09 15:30:08;;;;;;;17.95;10.70;;;;;;;23.13;47.91;101719.00;5013742;28;20430;-96
2021/10/09 15:32:33;;;;;;;14.07;9.60;;;;;;;23.08;47.60;101729.31;5013417;28;20036;-96
2021/10/09 15:35:00;;;;;;;13.07;8.68;;;;;;;23.03;47.30;101728.97;5009391;28;20052;-96
2021/10/09 15:37:25;;;;;;;13.05;8.63;;;;;;;22.97;48.06;101730.38;5000357;28;20018;-96
2021/10/09 15:39:51;;;;;;;13.60;8.82;;;;;;;23.14;48.30;101726.88;5013757;28;20036;-96
2021/10/09 15:42:16;;;;;;;12.77;8.15;;;;;;;23.16;48.66;101724.03;5008798;28;20025;-96
2021/10/09 15:44:42;;;;;;;11.25;7.75;;;;;;;22.90;49.65;101730.13;5013315;28;20044;-96
2021/10/09 15:47:07;;;;;;;11.75;8.02;;;;;;;22.79;49.31;101733.06;5006609;28;20014;-95
2021/10/09 15:49:33;;;;;;;9.60;6.88;;;;;;;22.80;49.36;101729.38;5007766;28;20494;-96
2021/10/09 15:51:58;;;;;;;11.15;8.15;;;;;;;22.73;48.77;101729.16;5013793;28;20025;-96
2021/10/09 15:54:23;;;;;;;10.43;8.10;;;;;;;22.71;49.45;101724.91;5013505;28;20025;-96
2021/10/09 15:56:49;;;;;;;13.20;8.15;;;;;;;22.80;48.95;101734.72;5014134;28;20017;-96
2021/10/09 15:59:14;;;;;;;11.00;8.07;;;;;;;22.90;48.99;101735.50;5011765;28;20041;-96
2021/10/09 16:01:39;;;;;;;10.10;6.75;;;;;;;22.85;50.08;101727.09;5011690;28;20044;-96
2021/10/09 16:04:05;;;;;;;11.77;6.72;;;;;;;22.81;50.69;101739.09;5022672;28;20037;-96
2021/10/09 16:06:30;;;;;;;63.70;9.68;;;;;;;22.54;52.21;101738.13;5022827;28;20029;-96
2021/10/09 16:08:56;;;;;;;13.50;6.63;;;;;;;22.45;52.55;101736.34;5015441;28;20071;-96
2021/10/09 16:11:22;;;;;;;9.25;6.35;;;;;;;22.25;53.53;101740.13;5014503;28;20022;-96
2021/10/09 16:13:49;;;;;;;9.27;5.55;;;;;;;22.24;53.52;101735.75;5015579;28;20029;-96
2021/10/09 16:16:16;;;;;;;9.50;6.15;;;;;;;22.30;53.74;101744.06;5024711;28;20025;-96
2021/10/09 16:18:41;;;;;;;7.13;5.35;;;;;;;22.25;54.11;101740.13;5021366;28;20018;-96
2021/10/09 16:21:07;;;;;;;9.77;5.68;;;;;;;22.23;54.68;101742.09;5015877;28;20504;-96
2021/10/09 16:23:33;;;;;;;8.02;6.07;;;;;;;22.11;54.95;101736.91;5023219;28;20018;-95
2021/10/09 16:26:01;;;;;;;7.35;4.95;;;;;;;22.08;55.73;101745.25;5052457;28;20027;-96
2021/10/09 16:36:06;;;;;;;9.65;6.53;;;;;;;22.17;55.03;101732.81;750480;26;20282;-95
2021/10/09 16:41:07;;;;;;;11.40;7.72;;;;;;;22.12;54.36;101735.94;5429128;22;20054;-96
2021/10/09 16:43:33;;;;;;;11.10;7.15;;;;;;;22.06;55.13;101739.22;5057512;28;20010;-96
2021/10/09 16:45:58;;;;;;;10.32;6.32;;;;;;;22.02;55.18;101732.47;5217381;22;20400;-93
2021/10/09 16:48:23;;;;;;;11.07;7.30;;;;;;;21.69;55.86;101734.69;5045629;28;20471;-96
2021/10/09 16:50:52;;;;;;;13.80;7.90;;;;;;;21.48;56.49;101742.88;5414038;22;20038;-96
2021/10/09 16:53:17;;;;;;;14.32;8.63;;;;;;;21.30;57.19;101745.38;5538106;22;20458;-96
2021/10/09 16:55:42;;;;;;;10.85;8.40;;;;;;;21.19;57.07;101743.72;5048533;28;20057;-96
2021/10/09 16:58:08;;;;;;;12.93;9.38;;;;;;;21.09;57.16;101747.38;5042282;28;20048;-95
2021/10/09 17:05:53;;;;;;;15.95;9.75;;;;;;;20.95;56.80;101741.47;5780272;22;20037;-96
2021/10/09 17:08:18;;;;;;;12.13;8.48;;;;;;;20.90;57.14;101742.88;5321321;22;20041;-96
2021/10/09 17:15:54;;;;;;;15.35;8.38;;;;;;;20.80;57.81;101753.53;5331215;22;20053;-96
2021/10/09 17:18:20;;;;;;;10.90;7.75;;;;;;;20.63;58.71;101762.22;5041262;28;20029;-96
2021/10/09 17:20:46;;;;;;;12.68;8.65;;;;;;;20.45;58.44;101749.50;5300612;22;20136;-96
2021/10/09 17:23:12;;;;;;;11.55;7.35;;;;;;;20.46;57.99;101761.88;5109052;23;20056;-95
2021/10/09 17:25:41;;;;;;;12.50;8.95;;;;;;;20.48;57.98;101751.91;5033066;28;20030;-96
2021/10/09 17:28:08;;;;;;;16.30;10.50;;;;;;;20.30;57.83;101750.84;5387879;22;20052;-96
2021/10/09 17:30:33;;;;;;;15.93;9.18;;;;;;;19.78;59.44;101761.56;5064722;28;20024;-94
2021/10/09 17:32:59;;;;;;;13.38;8.48;;;;;;;19.54;60.29;101753.81;5064928;28;20021;-96
2021/10/09 17:38:05;;;;;;;18.50;10.07;;;;;;;19.61;60.21;101754.97;5563954;22;20089;-96
2021/10/09 17:40:35;;;;;;;13.32;9.38;;;;;;;19.53;60.27;101749.44;5000052;28;20447;-96
2021/10/09 17:43:02;;;;;;;14.75;9.45;;;;;;;19.61;60.53;101770.97;5008727;28;20038;-96
2021/10/09 17:45:28;;;;;;;16.73;10.10;;;;;;;19.71;60.46;101766.56;4988924;28;20480;-96
2021/10/09 17:47:54;;;;;;;14.95;10.52;;;;;;;19.73;59.84;101777.94;5001351;28;20023;-96
2021/10/09 17:52:57;;;;;;;15.10;10.07;;;;;;;19.72;59.58;101762.91;5502618;22;20035;-96
2021/10/09 17:55:24;;;;;;;12.95;9.07;;;;;;;19.71;59.93;101782.56;5155237;22;20049;-96
2021/10/09 17:57:50;;;;;;;16.95;11.00;;;;;;;19.35;60.51;101779.34;5016606;28;20101;-96
2021/10/09 18:02:45;;;;;;;17.27;10.90;;;;;;;18.94;61.82;101782.75;5000440;28;20492;-96
2021/10/09 18:05:11;;;;;;;20.92;14.30;;;;;;;18.79;62.15;101775.03;4994620;28;20033;-96
2021/10/09 18:10:17;;;;;;;20.38;12.52;;;;;;;18.72;62.55;101771.16;5216184;22;20042;-96
2021/10/09 18:12:47;;;;;;;21.27;12.35;;;;;;;18.57;62.37;101778.53;5043257;28;20468;-96
2021/10/09 18:23:02;;;;;;;17.40;11.60;;;;;;;18.69;62.92;101795.34;5207888;22;20069;-96
2021/10/09 18:25:29;;;;;;;19.13;13.32;;;;;;;18.82;62.71;101787.25;5037232;28;20480;-96
2021/10/09 18:27:54;;;;;;;19.17;13.45;;;;;;;18.88;62.20;101777.91;5087777;22;20050;-96
2021/10/09 18:30:23;;;;;;;23.20;14.18;;;;;;;18.94;61.91;101780.09;5267689;22;20057;-96
2021/10/09 18:32:48;;;;;;;18.50;13.07;;;;;;;18.94;61.88;101777.44;5035370;28;20037;-96
2021/10/09 18:35:14;;;;;;;19.98;13.32;;;;;;;18.93;62.17;101789.88;5034190;28;20476;-93
2021/10/09 18:37:39;;;;;;;17.90;12.85;;;;;;;19.10;61.98;101800.97;5002485;28;20033;-94
2021/10/09 18:40:06;;;;;;;17.27;12.07;;;;;;;19.12;61.78;101796.38;4996696;28;20036;-95
2021/10/09 18:42:31;;;;;;;18.42;12.05;;;;;;;19.11;61.76;101800.81;4996242;28;20026;-93
2021/10/09 18:44:59;;;;;;;21.83;12.77;;;;;;;19.33;61.21;101802.59;4996055;28;20030;-94
2021/10/09 18:47:25;;;;;;;17.65;11.95;;;;;;;19.31;61.26;101793.00;5012943;28;20022;-94
2021/10/09 18:49:50;;;;;;;19.15;11.95;;;;;;;19.39;61.27;101796.75;5013318;28;20057;-94
2021/10/09 18:52:15;;;;;;;20.40;13.88;;;;;;;19.35;61.21;101808.63;5010994;28;20060;-94
2021/10/09 18:54:41;;;;;;;24.80;15.00;;;;;;;19.32;61.16;101814.19;5011938;28;20481;-96
2021/10/09 18:57:07;;;;;;;18.67;13.38;;;;;;;19.52;60.77;101809.88;5012330;28;20381;-94
2021/10/09 18:59:32;;;;;;;19.95;13.45;;;;;;;19.45;60.66;101813.16;4997688;28;20394;-94
2021/10/09 19:01:58;;;;;;;17.13;12.27;;;;;;;19.35;61.03;101823.72;5013414;28;20018;-94
2021/10/09 19:04:24;;;;;;;18.25;12.05;;;;;;;19.42;60.96;101815.13;4996642;28;20029;-96
2021/10/09 19:06:50;;;;;;;20.90;14.98;;;;;;;19.26;60.94;101817.38;4995692;28;20451;-94
2021/10/09 19:09:19;;;;;;;29.73;15.30;;;;;;;19.33;61.04;101820.34;4996769;28;20515;-96
2021/10/09 19:11:47;;;;;;;23.63;14.60;;;;;;;19.48;60.64;101823.56;5013910;28;20014;-96
2021/10/09 19:14:14;;;;;;;19.95;13.43;;;;;;;19.52;60.59;101828.50;4999926;28;20032;-96
2021/10/09 19:16:40;;;;;;;21.83;14.48;;;;;;;19.55;60.17;101822.06;4996504;28;20030;-95
2021/10/09 19:19:05;;;;;;;23.17;15.85;;;;;;;19.36;60.86;101828.94;4995169;28;20029;-94
2021/10/09 19:21:31;;;;;;;23.45;15.00;;;;;;;19.35;60.75;101829.06;4996302;28;20033;-96
2021/10/09 19:23:57;;;;;;;29.75;17.15;;;;;;;19.27;60.38;101824.38;4995577;28;20113;-95
2021/10/09 19:26:22;;;;;;;25.70;17.40;;;;;;;19.08;61.42;101826.88;4994724;28;20550;-94
2021/10/09 19:28:47;;;;;;;24.20;15.48;;;;;;;19.36;60.54;101826.28;4995390;28;20118;-94
2021/10/09 19:31:13;;;;;;;22.95;14.35;;;;;;;19.16;61.41;101830.59;4993532;28;20045;-95
2021/10/09 19:33:38;;;;;;;22.02;14.23;;;;;;;19.11;61.54;101831.94;4994767;28;20061;-93
2021/10/09 19:36:09;;;;;;;22.20;15.30;;;;;;;19.11;61.23;101827.44;5011229;28;20026;-93
2021/10/09 19:38:35;;;;;;;25.65;14.63;;;;;;;19.10;61.62;101839.06;5013005;28;20025;-93
2021/10/09 19:41:00;;;;;;;19.17;12.98;;;;;;;19.12;61.41;101833.63;5010249;28;20552;-93
2021/10/09 19:43:25;;;;;;;18.85;12.25;;;;;;;19.16;61.32;101841.25;4994454;28;20065;-93
2021/10/09 19:45:51;;;;;;;21.75;13.57;;;;;;;19.17;61.77;101831.44;5011509;28;20029;-93
2021/10/09 19:48:16;;;;;;;21.15;14.10;;;;;;;19.16;61.89;101832.41;5011466;28;20065;-93
2021/10/09 19:50:53;;;;;;;18.60;12.95;;;;;;;19.17;61.37;101836.75;5019615;28;20053;-93
2021/10/09 19:53:23;;;;;;;22.63;14.70;;;;;;;19.18;61.48;101843.78;5010696;28;20109;-94
2021/10/09 19:55:51;;;;;;;17.67;12.57;;;;;;;19.21;61.80;101839.06;5010281;28;20022;-94
2021/10/09 19:58:16;;;;;;;17.40;12.27;;;;;;;19.20;61.93;101842.69;4994345;28;20033;-94
2021/10/09 20:00:42;;;;;;;20.60;14.52;;;;;;;19.18;61.69;101844.63;4993912;28;20033;-93
2021/10/09 20:03:08;;;;;;;20.58;14.20;;;;;;;19.15;61.80;101846.69;4993775;28;20117;-94
2021/10/09 20:05:34;;;;;;;19.75;14.00;;;;;;;19.11;61.72;101842.56;4995304;28;20026;-96
2021/10/09 20:08:00;;;;;;;19.60;12.80;;;;;;;19.17;61.74;101850.06;4995144;28;20034;-95
2021/10/09 20:12:55;;;;;;;21.98;14.70;;;;;;;19.19;61.47;101856.97;5011672;28;20026;-95
2021/10/09 20:15:21;;;;;;;21.88;14.77;;;;;;;19.17;61.49;101860.72;4995453;28;20018;-95
2021/10/09 20:17:47;;;;;;;22.13;15.75;;;;;;;18.89;61.92;101864.75;4984743;28;20477;-95
2021/10/09 20:22:44;;;;;;;17.23;12.63;;;;;;;18.80;62.40;101869.03;5014826;28;20026;-94
2021/10/09 20:25:10;;;;;;;18.80;13.02;;;;;;;18.78;62.55;101862.94;4994933;28;20052;-95
2021/10/09 20:27:35;;;;;;;20.50;13.20;;;;;;;18.76;62.64;101859.53;4993951;28;20053;-95
2021/10/09 20:30:02;;;;;;;21.65;13.38;;;;;;;18.67;62.29;101861.13;4993922;28;20029;-94
2021/10/09 20:32:28;;;;;;;22.83;14.63;;;;;;;18.64;62.94;101866.66;5003610;28;20036;-94
2021/10/09 20:34:53;;;;;;;20.88;14.93;;;;;;;18.66;63.02;101869.22;4998451;28;20034;-93
2021/10/09 20:37:18;;;;;;;20.98;13.82;;;;;;;18.66;63.36;101855.91;5011517;28;20033;-93
2021/10/09 20:39:44;;;;;;;21.83;13.20;;;;;;;18.70;63.35;101868.88;5002997;28;20384;-93
2021/10/09 20:42:09;;;;;;;22.38;14.40;;;;;;;18.66;63.21;101863.91;5025779;28;20075;-93
2021/10/09 20:44:35;;;;;;;20.65;13.68;;;;;;;18.72;63.24;101866.06;4994286;28;20092;-95
2021/10/09 20:47:00;;;;;;;18.85;13.13;;;;;;;18.69;63.11;101861.00;5011538;28;20036;-94
2021/10/09 20:49:26;;;;;;;21.27;13.27;;;;;;;18.68;63.10;101870.81;5011699;28;20029;-92
2021/10/09 20:51:52;;;;;;;19.67;13.40;;;;;;;18.79;62.76;101864.63;5010346;28;20049;-93
2021/10/09 20:54:18;;;;;;;18.40;13.23;;;;;;;19.04;62.27;101874.19;5013730;28;20025;-93
2021/10/09 20:56:44;;;;;;;18.58;12.75;;;;;;;19.06;62.01;101876.72;5024263;28;20037;-93
2021/10/09 20:59:10;;;;;;;15.00;11.98;;;;;;;18.99;62.41;101879.03;5011106;28;20046;-93
2021/10/09 21:01:36;;;;;;;16.52;12.43;;;;;;;18.93;62.33;101876.84;5011217;28;20034;-95
2021/10/09 21:04:02;;;;;;;16.88;12.45;;;;;;;18.90;62.48;101875.28;5018362;28;20085;-94
2021/10/09 21:06:28;;;;;;;19.58;11.60;;;;;;;18.70;62.97;101883.97;4994176;28;20112;-94
2021/10/09 21:08:56;;;;;;;18.58;13.50;;;;;;;18.48;63.11;101869.69;4994268;28;20104;-94
2021/10/09 21:11:26;;;;;;;19.40;13.88;;;;;;;18.39;63.29;101881.06;4994028;28;20022;-94
2021/10/09 21:22:28;;;;;;;15.10;11.45;;;;;;;18.41;63.20;101881.78;5015532;28;20540;-94
2021/10/09 21:24:56;;;;;;;15.20;10.90;;;;;;;18.42;62.87;101884.34;4997635;28;20037;-93
2021/10/09 21:27:23;;;;;;;13.15;9.98;;;;;;;18.45;63.41;101883.25;4997414;28;20555;-93
2021/10/09 21:29:49;;;;;;;19.58;11.95;;;;;;;18.48;63.37;101876.84;4997330;28;20180;-93
2021/10/09 21:32:15;;;;;;;16.13;11.25;;;;;;;18.42;63.01;101887.00;4997150;28;20050;-93
2021/10/09 21:34:40;;;;;;;18.52;9.65;;;;;;;18.45;63.33;101877.94;5015037;28;20029;-92
2021/10/09 21:37:06;;;;;;;12.93;10.05;;;;;;;18.43;63.75;101880.69;4997177;28;20026;-93
2021/10/09 21:39:33;;;;;;;13.88;9.95;;;;;;;18.42;63.48;101878.16;5013151;28;20030;-93
2021/10/09 21:41:59;;;;;;;12.70;9.38;;;;;;;18.45;63.69;101877.94;4996947;28;20026;-93
2021/10/09 21:44:24;;;;;;;14.15;10.32;;;;;;;18.48;63.64;101888.31;5014616;28;20072;-93
2021/10/09 21:46:49;;;;;;;17.20;11.70;;;;;;;18.50;63.33;101885.53;4996909;28;20036;-93
2021/10/09 21:49:15;;;;;;;18.92;11.75;;;;;;;18.48;63.34;101890.97;5014421;28;20514;-93
2021/10/09 21:51:41;;;;;;;18.23;12.02;;;;;;;18.47;63.61;101891.09;5014669;28;20072;-94
2021/10/09 21:54:07;;;;;;;16.27;11.57;;;;;;;18.48;63.76;101896.28;4997146;28;20036;-94
2021/10/09 21:56:46;;;;;;;16.00;10.98;;;;;;;18.49;63.95;101895.34;4995085;28;20030;-95
2021/10/09 22:07:23;;;;;;;17.02;11.48;;;;;;;18.50;63.93;101897.00;5014448;28;20053;-93
2021/10/09 22:18:09;;;;;;;14.13;10.00;;;;;;;18.65;64.04;101900.31;5012795;28;20037;-93
2021/10/09 22:33:58;;;;;;;13.32;9.70;;;;;;;18.56;64.78;101895.69;5013785;28;20062;-94
2021/10/09 22:36:23;;;;;;;12.80;9.02;;;;;;;18.57;65.17;101908.03;5013720;28;20480;-93
2021/10/09 22:38:48;;;;;;;12.82;9.55;;;;;;;18.61;64.79;101897.03;4996125;28;20028;-92
2021/10/09 22:41:14;;;;;;;13.75;8.98;;;;;;;18.72;64.60;101901.53;4996296;28;20030;-93
2021/10/09 22:43:40;;;;;;;10.73;8.80;;;;;;;18.73;64.75;101902.38;4996202;28;20038;-92
2021/10/09 22:46:06;;;;;;;13.60;8.13;;;;;;;18.54;65.73;101898.50;5013762;28;20547;-93
2021/10/09 22:48:32;;;;;;;11.65;9.15;;;;;;;18.35;66.27;101906.19;5013549;28;20105;-93
2021/10/09 22:51:02;;;;;;;10.25;7.78;;;;;;;18.24;67.07;101901.69;5013374;28;20029;-93
2021/10/09 22:53:27;;;;;;;13.82;9.18;;;;;;;18.21;67.07;101904.59;5013033;28;20029;-93
2021/10/09 22:55:53;;;;;;;14.38;9.05;;;;;;;18.26;67.26;101901.59;4995765;28;20029;-93
2021/10/09 22:58:20;;;;;;;11.98;9.43;;;;;;;18.40;67.00;101906.69;4995759;28;20072;-93
2021/10/09 23:00:45;;;;;;;12.73;9.43;;;;;;;18.50;66.86;101910.31;4995729;28;20061;-93
2021/10/09 23:03:11;;;;;;;12.30;8.68;;;;;;;18.57;66.41;101900.91;4995583;28;20070;-94
2021/10/09 23:05:36;;;;;;;15.00;9.05;;;;;;;18.89;65.48;101907.34;5013246;28;20026;-94
2021/10/09 23:08:02;;;;;;;13.50;9.15;;;;;;;18.94;65.53;101899.84;5013019;28;20441;-93
2021/10/09 23:10:27;;;;;;;11.65;8.35;;;;;;;18.94;65.43;101907.84;5013015;28;20037;-93